sensor_id;sensor_type;location;lat;lon;timestamp;P1;durP1;ratioP1;P2;durP2;ratioP2
27758;SDS011;15148;48.972;12.794;2022-08-19T00:00:28;8.85;;;8.13;;
27758;SDS011;15148;48.972;12.794;2022-08-19T00:05:31;11.80;;;9.55;;
27758;SDS011;15148;48.972;12.794;2022-08-19T00:10:33;11.07;;;9.07;;
27758;SDS011;15148;48.972;12.794;2022-08-19T00:15:35;9.77;;;8.88;;
27758;SDS011;15148;48.972;12.794;2022-08-19T00:20:37;10.20;;;9.20;;
27758;SDS011;15148;48.972;12.794;2022-08-19T00:25:41;10.35;;;9.45;;
27758;SDS011;15148;48.972;12.794;2022-08-19T00:30:48;10.87;;;9.30;;
27758;SDS011;15148;48.972;12.794;2022-08-19T00:35:54;11.60;;;10.48;;
27758;SDS011;15148;48.972;12.794;2022-08-19T00:40:56;10.70;;;9.75;;
27758;SDS011;15148;48.972;12.794;2022-08-19T00:45:58;11.05;;;9.95;;
27758;SDS011;15148;48.972;12.794;2022-08-19T00:51:00;10.98;;;10.07;;
27758;SDS011;15148;48.972;12.794;2022-08-19T00:56:03;11.95;;;10.85;;
27758;SDS011;15148;48.972;12.794;2022-08-19T01:01:07;13.50;;;12.07;;
27758;SDS011;15148;48.972;12.794;2022-08-19T01:06:12;13.95;;;10.77;;
27758;SDS011;15148;48.972;12.794;2022-08-19T01:11:20;17.08;;;15.48;;
27758;SDS011;15148;48.972;12.794;2022-08-19T01:16:23;18.98;;;17.10;;
27758;SDS011;15148;48.972;12.794;2022-08-19T01:21:33;21.45;;;19.40;;
27758;SDS011;15148;48.972;12.794;2022-08-19T01:26:41;19.52;;;17.73;;
27758;SDS011;15148;48.972;12.794;2022-08-19T01:31:46;19.25;;;16.23;;
27758;SDS011;15148;48.972;12.794;2022-08-19T01:36:50;28.13;;;25.13;;
27758;SDS011;15148;48.972;12.794;2022-08-19T01:41:52;26.33;;;23.67;;
27758;SDS011;15148;48.972;12.794;2022-08-19T01:46:55;24.70;;;21.08;;
27758;SDS011;15148;48.972;12.794;2022-08-19T01:51:58;22.00;;;19.73;;
27758;SDS011;15148;48.972;12.794;2022-08-19T01:57:03;23.60;;;21.52;;
27758;SDS011;15148;48.972;12.794;2022-08-19T02:02:09;23.42;;;21.02;;
27758;SDS011;15148;48.972;12.794;2022-08-19T02:07:11;22.40;;;20.20;;
27758;SDS011;15148;48.972;12.794;2022-08-19T02:12:13;22.27;;;20.00;;
27758;SDS011;15148;48.972;12.794;2022-08-19T02:17:17;21.38;;;19.15;;
27758;SDS011;15148;48.972;12.794;2022-08-19T02:22:19;22.35;;;20.05;;
27758;SDS011;15148;48.972;12.794;2022-08-19T02:27:21;23.00;;;20.77;;
27758;SDS011;15148;48.972;12.794;2022-08-19T02:32:24;23.58;;;21.27;;
27758;SDS011;15148;48.972;12.794;2022-08-19T02:37:26;23.52;;;21.13;;
27758;SDS011;15148;48.972;12.794;2022-08-19T02:42:46;24.27;;;21.98;;
27758;SDS011;15148;48.972;12.794;2022-08-19T02:47:48;21.20;;;19.13;;
27758;SDS011;15148;48.972;12.794;2022-08-19T02:52:50;22.67;;;20.58;;
27758;SDS011;15148;48.972;12.794;2022-08-19T02:57:52;23.77;;;20.00;;
27758;SDS011;15148;48.972;12.794;2022-08-19T03:02:54;24.83;;;22.42;;
27758;SDS011;15148;48.972;12.794;2022-08-19T03:07:57;26.58;;;23.98;;
27758;SDS011;15148;48.972;12.794;2022-08-19T03:12:59;26.30;;;22.77;;
27758;SDS011;15148;48.972;12.794;2022-08-19T03:18:04;27.17;;;24.30;;
27758;SDS011;15148;48.972;12.794;2022-08-19T03:23:08;29.30;;;26.33;;
27758;SDS011;15148;48.972;12.794;2022-08-19T03:28:12;28.88;;;26.02;;
27758;SDS011;15148;48.972;12.794;2022-08-19T03:33:15;30.73;;;27.83;;
27758;SDS011;15148;48.972;12.794;2022-08-19T03:38:18;29.35;;;26.00;;
27758;SDS011;15148;48.972;12.794;2022-08-19T03:43:20;26.25;;;23.45;;
27758;SDS011;15148;48.972;12.794;2022-08-19T03:48:22;27.75;;;24.83;;
27758;SDS011;15148;48.972;12.794;2022-08-19T03:53:24;25.65;;;23.25;;
27758;SDS011;15148;48.972;12.794;2022-08-19T03:58:28;27.42;;;24.88;;
27758;SDS011;15148;48.972;12.794;2022-08-19T04:03:30;25.38;;;23.00;;
27758;SDS011;15148;48.972;12.794;2022-08-19T04:08:32;28.13;;;25.27;;
27758;SDS011;15148;48.972;12.794;2022-08-19T04:13:34;26.15;;;23.50;;
27758;SDS011;15148;48.972;12.794;2022-08-19T04:18:37;31.15;;;27.95;;
27758;SDS011;15148;48.972;12.794;2022-08-19T04:23:40;35.05;;;31.48;;
27758;SDS011;15148;48.972;12.794;2022-08-19T04:28:46;32.40;;;29.13;;
27758;SDS011;15148;48.972;12.794;2022-08-19T04:33:48;30.88;;;27.88;;
27758;SDS011;15148;48.972;12.794;2022-08-19T04:38:50;34.15;;;30.73;;
27758;SDS011;15148;48.972;12.794;2022-08-19T04:43:56;33.80;;;30.55;;
27758;SDS011;15148;48.972;12.794;2022-08-19T04:54:14;33.83;;;30.50;;
27758;SDS011;15148;48.972;12.794;2022-08-19T04:59:37;34.88;;;31.58;;
27758;SDS011;15148;48.972;12.794;2022-08-19T05:04:40;33.05;;;29.92;;
27758;SDS011;15148;48.972;12.794;2022-08-19T05:09:42;32.35;;;29.10;;
27758;SDS011;15148;48.972;12.794;2022-08-19T05:14:58;35.45;;;31.80;;
27758;SDS011;15148;48.972;12.794;2022-08-19T05:20:02;35.13;;;31.52;;
27758;SDS011;15148;48.972;12.794;2022-08-19T05:25:23;33.30;;;30.08;;
27758;SDS011;15148;48.972;12.794;2022-08-19T05:30:26;33.42;;;30.20;;
27758;SDS011;15148;48.972;12.794;2022-08-19T05:35:47;33.00;;;29.73;;
27758;SDS011;15148;48.972;12.794;2022-08-19T05:40:50;39.85;;;34.50;;
27758;SDS011;15148;48.972;12.794;2022-08-19T05:45:52;36.75;;;32.95;;
27758;SDS011;15148;48.972;12.794;2022-08-19T05:50:54;36.63;;;32.88;;
27758;SDS011;15148;48.972;12.794;2022-08-19T05:55:56;39.75;;;35.65;;
27758;SDS011;15148;48.972;12.794;2022-08-19T06:00:59;36.13;;;32.45;;
27758;SDS011;15148;48.972;12.794;2022-08-19T06:06:06;36.67;;;33.05;;
27758;SDS011;15148;48.972;12.794;2022-08-19T06:16:21;38.10;;;34.30;;
27758;SDS011;15148;48.972;12.794;2022-08-19T06:21:24;36.88;;;33.33;;
27758;SDS011;15148;48.972;12.794;2022-08-19T06:26:28;38.15;;;34.47;;
27758;SDS011;15148;48.972;12.794;2022-08-19T06:31:30;36.08;;;32.47;;
27758;SDS011;15148;48.972;12.794;2022-08-19T06:36:36;35.33;;;31.67;;
27758;SDS011;15148;48.972;12.794;2022-08-19T06:41:42;35.95;;;32.22;;
27758;SDS011;15148;48.972;12.794;2022-08-19T06:46:53;36.88;;;33.10;;
27758;SDS011;15148;48.972;12.794;2022-08-19T06:51:56;37.42;;;33.25;;
27758;SDS011;15148;48.972;12.794;2022-08-19T06:57:02;39.78;;;35.85;;
27758;SDS011;15148;48.972;12.794;2022-08-19T07:02:04;40.28;;;36.30;;
27758;SDS011;15148;48.972;12.794;2022-08-19T07:07:09;39.90;;;36.03;;
27758;SDS011;15148;48.972;12.794;2022-08-19T07:12:21;37.75;;;34.05;;
27758;SDS011;15148;48.972;12.794;2022-08-19T07:17:23;38.35;;;34.60;;
27758;SDS011;15148;48.972;12.794;2022-08-19T07:22:25;35.25;;;31.58;;
27758;SDS011;15148;48.972;12.794;2022-08-19T07:27:27;38.60;;;34.63;;
27758;SDS011;15148;48.972;12.794;2022-08-19T07:32:33;37.08;;;33.25;;
27758;SDS011;15148;48.972;12.794;2022-08-19T07:37:35;33.10;;;30.02;;
27758;SDS011;15148;48.972;12.794;2022-08-19T07:42:38;38.33;;;34.55;;
27758;SDS011;15148;48.972;12.794;2022-08-19T07:47:40;38.72;;;34.85;;
27758;SDS011;15148;48.972;12.794;2022-08-19T07:52:50;35.88;;;32.35;;
27758;SDS011;15148;48.972;12.794;2022-08-19T07:57:52;37.20;;;33.65;;
27758;SDS011;15148;48.972;12.794;2022-08-19T08:02:54;36.67;;;32.97;;
27758;SDS011;15148;48.972;12.794;2022-08-19T08:07:56;38.10;;;34.53;;
27758;SDS011;15148;48.972;12.794;2022-08-19T08:13:28;36.67;;;33.13;;
27758;SDS011;15148;48.972;12.794;2022-08-19T08:18:29;36.00;;;32.42;;
27758;SDS011;15148;48.972;12.794;2022-08-19T08:23:32;35.38;;;31.95;;
27758;SDS011;15148;48.972;12.794;2022-08-19T08:28:34;35.75;;;32.30;;
27758;SDS011;15148;48.972;12.794;2022-08-19T08:33:36;34.72;;;31.13;;
27758;SDS011;15148;48.972;12.794;2022-08-19T08:38:39;31.88;;;28.60;;
27758;SDS011;15148;48.972;12.794;2022-08-19T08:43:44;31.33;;;28.10;;
27758;SDS011;15148;48.972;12.794;2022-08-19T08:54:00;29.98;;;27.10;;
27758;SDS011;15148;48.972;12.794;2022-08-19T08:59:10;26.08;;;23.63;;
27758;SDS011;15148;48.972;12.794;2022-08-19T09:04:20;25.88;;;23.40;;
27758;SDS011;15148;48.972;12.794;2022-08-19T09:09:32;23.48;;;21.17;;
27758;SDS011;15148;48.972;12.794;2022-08-19T09:19:53;28.95;;;26.15;;
27758;SDS011;15148;48.972;12.794;2022-08-19T09:24:57;27.27;;;24.40;;
27758;SDS011;15148;48.972;12.794;2022-08-19T09:29:59;24.52;;;22.33;;
27758;SDS011;15148;48.972;12.794;2022-08-19T09:35:01;28.63;;;25.48;;
27758;SDS011;15148;48.972;12.794;2022-08-19T09:40:09;26.60;;;24.00;;
27758;SDS011;15148;48.972;12.794;2022-08-19T09:45:17;26.33;;;23.92;;
27758;SDS011;15148;48.972;12.794;2022-08-19T09:50:23;22.52;;;20.33;;
27758;SDS011;15148;48.972;12.794;2022-08-19T09:55:25;21.95;;;19.80;;
27758;SDS011;15148;48.972;12.794;2022-08-19T10:00:32;19.42;;;17.58;;
27758;SDS011;15148;48.972;12.794;2022-08-19T10:05:34;19.20;;;17.48;;
27758;SDS011;15148;48.972;12.794;2022-08-19T10:10:56;23.15;;;20.98;;
27758;SDS011;15148;48.972;12.794;2022-08-19T10:16:06;19.67;;;17.85;;
27758;SDS011;15148;48.972;12.794;2022-08-19T10:21:15;24.25;;;21.75;;
27758;SDS011;15148;48.972;12.794;2022-08-19T10:26:24;22.55;;;20.50;;
27758;SDS011;15148;48.972;12.794;2022-08-19T10:31:28;24.45;;;22.02;;
27758;SDS011;15148;48.972;12.794;2022-08-19T10:36:51;22.27;;;20.17;;
27758;SDS011;15148;48.972;12.794;2022-08-19T10:42:05;18.80;;;17.13;;
27758;SDS011;15148;48.972;12.794;2022-08-19T10:47:08;24.37;;;22.07;;
27758;SDS011;15148;48.972;12.794;2022-08-19T10:52:26;22.70;;;20.33;;
27758;SDS011;15148;48.972;12.794;2022-08-19T10:57:39;18.90;;;17.17;;
27758;SDS011;15148;48.972;12.794;2022-08-19T11:03:02;20.65;;;18.65;;
27758;SDS011;15148;48.972;12.794;2022-08-19T11:08:04;18.63;;;16.70;;
27758;SDS011;15148;48.972;12.794;2022-08-19T11:13:23;21.17;;;19.23;;
27758;SDS011;15148;48.972;12.794;2022-08-19T11:18:26;17.70;;;16.10;;
27758;SDS011;15148;48.972;12.794;2022-08-19T11:23:28;15.73;;;14.32;;
27758;SDS011;15148;48.972;12.794;2022-08-19T11:28:30;16.92;;;15.40;;
27758;SDS011;15148;48.972;12.794;2022-08-19T11:33:32;19.20;;;17.23;;
27758;SDS011;15148;48.972;12.794;2022-08-19T11:38:34;17.60;;;15.90;;
27758;SDS011;15148;48.972;12.794;2022-08-19T11:43:36;16.55;;;14.57;;
27758;SDS011;15148;48.972;12.794;2022-08-19T11:48:38;16.27;;;14.65;;
27758;SDS011;15148;48.972;12.794;2022-08-19T11:53:41;15.73;;;14.13;;
27758;SDS011;15148;48.972;12.794;2022-08-19T11:58:43;15.07;;;13.50;;
27758;SDS011;15148;48.972;12.794;2022-08-19T12:03:46;13.52;;;12.40;;
27758;SDS011;15148;48.972;12.794;2022-08-19T12:08:49;15.07;;;13.65;;
27758;SDS011;15148;48.972;12.794;2022-08-19T12:13:51;15.75;;;14.38;;
27758;SDS011;15148;48.972;12.794;2022-08-19T12:18:55;15.88;;;14.25;;
27758;SDS011;15148;48.972;12.794;2022-08-19T12:23:58;16.05;;;14.65;;
27758;SDS011;15148;48.972;12.794;2022-08-19T12:29:01;14.77;;;13.48;;
27758;SDS011;15148;48.972;12.794;2022-08-19T12:34:03;14.55;;;13.18;;
27758;SDS011;15148;48.972;12.794;2022-08-19T12:39:05;17.35;;;13.43;;
27758;SDS011;15148;48.972;12.794;2022-08-19T12:44:11;14.20;;;12.80;;
27758;SDS011;15148;48.972;12.794;2022-08-19T12:49:14;16.10;;;14.63;;
27758;SDS011;15148;48.972;12.794;2022-08-19T12:54:37;14.98;;;13.60;;
27758;SDS011;15148;48.972;12.794;2022-08-19T12:59:39;14.57;;;13.38;;
27758;SDS011;15148;48.972;12.794;2022-08-19T13:04:41;17.75;;;16.25;;
27758;SDS011;15148;48.972;12.794;2022-08-19T13:09:42;17.90;;;16.30;;
27758;SDS011;15148;48.972;12.794;2022-08-19T13:14:45;16.25;;;14.90;;
27758;SDS011;15148;48.972;12.794;2022-08-19T13:19:52;17.48;;;15.88;;
27758;SDS011;15148;48.972;12.794;2022-08-19T13:24:54;16.20;;;14.70;;
27758;SDS011;15148;48.972;12.794;2022-08-19T13:29:55;19.35;;;17.65;;
27758;SDS011;15148;48.972;12.794;2022-08-19T13:35:16;17.27;;;15.50;;
27758;SDS011;15148;48.972;12.794;2022-08-19T13:40:20;17.73;;;16.08;;
27758;SDS011;15148;48.972;12.794;2022-08-19T13:45:26;16.90;;;15.40;;
27758;SDS011;15148;48.972;12.794;2022-08-19T13:50:30;16.75;;;15.25;;
27758;SDS011;15148;48.972;12.794;2022-08-19T13:55:32;17.65;;;16.08;;
27758;SDS011;15148;48.972;12.794;2022-08-19T14:00:36;16.75;;;15.00;;
27758;SDS011;15148;48.972;12.794;2022-08-19T14:05:40;17.00;;;15.40;;
27758;SDS011;15148;48.972;12.794;2022-08-19T14:10:42;14.68;;;13.38;;
27758;SDS011;15148;48.972;12.794;2022-08-19T14:15:48;14.65;;;13.35;;
27758;SDS011;15148;48.972;12.794;2022-08-19T14:20:51;15.57;;;14.18;;
27758;SDS011;15148;48.972;12.794;2022-08-19T14:26:02;15.00;;;13.63;;
27758;SDS011;15148;48.972;12.794;2022-08-19T14:31:05;13.20;;;11.80;;
27758;SDS011;15148;48.972;12.794;2022-08-19T14:36:07;12.43;;;11.23;;
27758;SDS011;15148;48.972;12.794;2022-08-19T14:41:11;12.10;;;11.07;;
27758;SDS011;15148;48.972;12.794;2022-08-19T14:46:19;13.32;;;12.23;;
27758;SDS011;15148;48.972;12.794;2022-08-19T14:51:30;13.98;;;12.77;;
27758;SDS011;15148;48.972;12.794;2022-08-19T14:56:32;11.60;;;10.52;;
27758;SDS011;15148;48.972;12.794;2022-08-19T15:01:34;13.23;;;11.95;;
27758;SDS011;15148;48.972;12.794;2022-08-19T15:06:36;14.32;;;12.98;;
27758;SDS011;15148;48.972;12.794;2022-08-19T15:11:39;12.30;;;11.18;;
27758;SDS011;15148;48.972;12.794;2022-08-19T15:16:41;13.45;;;12.18;;
27758;SDS011;15148;48.972;12.794;2022-08-19T15:21:43;12.45;;;11.35;;
27758;SDS011;15148;48.972;12.794;2022-08-19T15:26:44;14.35;;;13.02;;
27758;SDS011;15148;48.972;12.794;2022-08-19T15:31:47;12.80;;;11.25;;
27758;SDS011;15148;48.972;12.794;2022-08-19T15:36:52;11.68;;;10.68;;
27758;SDS011;15148;48.972;12.794;2022-08-19T15:41:54;12.05;;;10.85;;
27758;SDS011;15148;48.972;12.794;2022-08-19T15:46:56;12.32;;;11.18;;
27758;SDS011;15148;48.972;12.794;2022-08-19T15:51:58;12.73;;;11.52;;
27758;SDS011;15148;48.972;12.794;2022-08-19T15:57:01;12.23;;;11.13;;
27758;SDS011;15148;48.972;12.794;2022-08-19T16:02:23;12.50;;;11.40;;
27758;SDS011;15148;48.972;12.794;2022-08-19T16:07:46;11.05;;;10.07;;
27758;SDS011;15148;48.972;12.794;2022-08-19T16:12:48;12.27;;;10.60;;
27758;SDS011;15148;48.972;12.794;2022-08-19T16:17:50;11.32;;;10.25;;
27758;SDS011;15148;48.972;12.794;2022-08-19T16:22:57;12.57;;;11.38;;
27758;SDS011;15148;48.972;12.794;2022-08-19T16:28:00;11.27;;;10.27;;
27758;SDS011;15148;48.972;12.794;2022-08-19T16:33:08;12.10;;;11.00;;
27758;SDS011;15148;48.972;12.794;2022-08-19T16:38:11;10.48;;;9.52;;
27758;SDS011;15148;48.972;12.794;2022-08-19T16:43:13;11.25;;;10.25;;
27758;SDS011;15148;48.972;12.794;2022-08-19T16:48:15;10.63;;;9.68;;
27758;SDS011;15148;48.972;12.794;2022-08-19T16:53:18;10.55;;;9.65;;
27758;SDS011;15148;48.972;12.794;2022-08-19T16:58:23;11.13;;;10.18;;
27758;SDS011;15148;48.972;12.794;2022-08-19T17:03:28;10.77;;;9.85;;
27758;SDS011;15148;48.972;12.794;2022-08-19T17:08:36;10.95;;;10.02;;
27758;SDS011;15148;48.972;12.794;2022-08-19T17:13:39;10.32;;;9.32;;
27758;SDS011;15148;48.972;12.794;2022-08-19T17:18:43;11.55;;;10.35;;
27758;SDS011;15148;48.972;12.794;2022-08-19T17:23:45;10.95;;;9.85;;
27758;SDS011;15148;48.972;12.794;2022-08-19T17:28:48;9.48;;;8.65;;
27758;SDS011;15148;48.972;12.794;2022-08-19T17:33:52;10.43;;;9.55;;
27758;SDS011;15148;48.972;12.794;2022-08-19T17:38:56;10.32;;;9.43;;
27758;SDS011;15148;48.972;12.794;2022-08-19T17:44:01;11.18;;;10.27;;
27758;SDS011;15148;48.972;12.794;2022-08-19T17:49:03;11.00;;;9.90;;
27758;SDS011;15148;48.972;12.794;2022-08-19T17:54:08;10.70;;;9.63;;
27758;SDS011;15148;48.972;12.794;2022-08-19T17:59:11;11.15;;;10.20;;
27758;SDS011;15148;48.972;12.794;2022-08-19T18:04:14;10.90;;;9.90;;
27758;SDS011;15148;48.972;12.794;2022-08-19T18:09:17;10.80;;;9.80;;
27758;SDS011;15148;48.972;12.794;2022-08-19T18:14:24;10.27;;;9.38;;
27758;SDS011;15148;48.972;12.794;2022-08-19T18:19:34;11.63;;;10.65;;
27758;SDS011;15148;48.972;12.794;2022-08-19T18:24:42;11.45;;;10.32;;
27758;SDS011;15148;48.972;12.794;2022-08-19T18:29:46;13.70;;;12.40;;
27758;SDS011;15148;48.972;12.794;2022-08-19T18:34:48;12.38;;;11.10;;
27758;SDS011;15148;48.972;12.794;2022-08-19T18:39:50;12.25;;;11.05;;
27758;SDS011;15148;48.972;12.794;2022-08-19T18:45:10;13.32;;;12.13;;
27758;SDS011;15148;48.972;12.794;2022-08-19T18:50:31;12.63;;;11.45;;
27758;SDS011;15148;48.972;12.794;2022-08-19T18:55:33;12.60;;;11.50;;
27758;SDS011;15148;48.972;12.794;2022-08-19T19:00:35;11.15;;;10.20;;
27758;SDS011;15148;48.972;12.794;2022-08-19T19:05:37;12.63;;;11.52;;
27758;SDS011;15148;48.972;12.794;2022-08-19T19:10:42;12.15;;;10.95;;
27758;SDS011;15148;48.972;12.794;2022-08-19T19:15:45;12.65;;;11.40;;
27758;SDS011;15148;48.972;12.794;2022-08-19T19:20:47;12.52;;;11.32;;
27758;SDS011;15148;48.972;12.794;2022-08-19T19:25:49;13.85;;;12.63;;
27758;SDS011;15148;48.972;12.794;2022-08-19T19:30:53;14.20;;;12.85;;
27758;SDS011;15148;48.972;12.794;2022-08-19T19:35:58;14.13;;;12.82;;
27758;SDS011;15148;48.972;12.794;2022-08-19T19:41:00;13.88;;;12.57;;
27758;SDS011;15148;48.972;12.794;2022-08-19T19:46:02;13.32;;;12.13;;
27758;SDS011;15148;48.972;12.794;2022-08-19T19:51:08;13.70;;;11.60;;
27758;SDS011;15148;48.972;12.794;2022-08-19T19:56:10;14.15;;;12.75;;
27758;SDS011;15148;48.972;12.794;2022-08-19T20:01:13;14.70;;;11.50;;
27758;SDS011;15148;48.972;12.794;2022-08-19T20:06:23;15.50;;;14.00;;
27758;SDS011;15148;48.972;12.794;2022-08-19T20:11:26;13.88;;;12.57;;
27758;SDS011;15148;48.972;12.794;2022-08-19T20:16:33;14.20;;;12.93;;
27758;SDS011;15148;48.972;12.794;2022-08-19T20:21:35;14.27;;;12.98;;
27758;SDS011;15148;48.972;12.794;2022-08-19T20:26:42;14.65;;;13.32;;
27758;SDS011;15148;48.972;12.794;2022-08-19T20:31:47;14.77;;;13.48;;
27758;SDS011;15148;48.972;12.794;2022-08-19T20:36:58;14.23;;;12.82;;
27758;SDS011;15148;48.972;12.794;2022-08-19T20:42:00;12.98;;;11.07;;
27758;SDS011;15148;48.972;12.794;2022-08-19T20:47:02;12.95;;;11.60;;
27758;SDS011;15148;48.972;12.794;2022-08-19T20:52:04;12.57;;;11.38;;
27758;SDS011;15148;48.972;12.794;2022-08-19T20:57:06;11.18;;;10.20;;
27758;SDS011;15148;48.972;12.794;2022-08-19T21:02:08;13.38;;;12.27;;
27758;SDS011;15148;48.972;12.794;2022-08-19T21:07:11;13.32;;;12.13;;
27758;SDS011;15148;48.972;12.794;2022-08-19T21:12:13;14.10;;;12.57;;
27758;SDS011;15148;48.972;12.794;2022-08-19T21:17:15;13.25;;;12.05;;
27758;SDS011;15148;48.972;12.794;2022-08-19T21:22:17;15.32;;;13.93;;
27758;SDS011;15148;48.972;12.794;2022-08-19T21:27:19;16.48;;;14.95;;
27758;SDS011;15148;48.972;12.794;2022-08-19T21:32:21;14.18;;;12.98;;
27758;SDS011;15148;48.972;12.794;2022-08-19T21:37:23;17.55;;;15.95;;
27758;SDS011;15148;48.972;12.794;2022-08-19T21:42:26;17.67;;;16.10;;
27758;SDS011;15148;48.972;12.794;2022-08-19T21:47:28;17.98;;;16.27;;
27758;SDS011;15148;48.972;12.794;2022-08-19T21:52:30;17.92;;;16.38;;
27758;SDS011;15148;48.972;12.794;2022-08-19T21:57:32;17.90;;;16.15;;
27758;SDS011;15148;48.972;12.794;2022-08-19T22:02:35;16.27;;;14.85;;
27758;SDS011;15148;48.972;12.794;2022-08-19T22:07:38;19.20;;;17.30;;
27758;SDS011;15148;48.972;12.794;2022-08-19T22:12:40;19.98;;;18.15;;
27758;SDS011;15148;48.972;12.794;2022-08-19T22:17:52;19.33;;;17.63;;
27758;SDS011;15148;48.972;12.794;2022-08-19T22:22:55;19.13;;;17.33;;
27758;SDS011;15148;48.972;12.794;2022-08-19T22:28:00;19.25;;;17.45;;
27758;SDS011;15148;48.972;12.794;2022-08-19T22:33:07;21.08;;;18.85;;
27758;SDS011;15148;48.972;12.794;2022-08-19T22:38:11;22.55;;;20.38;;
27758;SDS011;15148;48.972;12.794;2022-08-19T22:43:15;23.02;;;20.92;;
27758;SDS011;15148;48.972;12.794;2022-08-19T22:48:21;23.38;;;21.08;;
27758;SDS011;15148;48.972;12.794;2022-08-19T22:53:25;23.20;;;21.00;;
27758;SDS011;15148;48.972;12.794;2022-08-19T22:58:27;21.70;;;19.70;;
27758;SDS011;15148;48.972;12.794;2022-08-19T23:03:30;21.77;;;19.75;;
27758;SDS011;15148;48.972;12.794;2022-08-19T23:08:33;19.27;;;17.65;;
27758;SDS011;15148;48.972;12.794;2022-08-19T23:13:38;16.38;;;14.95;;
27758;SDS011;15148;48.972;12.794;2022-08-19T23:18:41;18.70;;;14.50;;
27758;SDS011;15148;48.972;12.794;2022-08-19T23:23:42;13.48;;;12.27;;
27758;SDS011;15148;48.972;12.794;2022-08-19T23:28:45;11.85;;;10.77;;
27758;SDS011;15148;48.972;12.794;2022-08-19T23:34:05;12.50;;;11.20;;
27758;SDS011;15148;48.972;12.794;2022-08-19T23:39:07;13.23;;;11.98;;
27758;SDS011;15148;48.972;12.794;2022-08-19T23:44:09;13.20;;;12.00;;
27758;SDS011;15148;48.972;12.794;2022-08-19T23:49:15;13.40;;;12.07;;
27758;SDS011;15148;48.972;12.794;2022-08-19T23:54:17;13.90;;;12.60;;
27758;SDS011;15148;48.972;12.794;2022-08-19T23:59:19;13.80;;;12.40;;
